sensor_id;sensor_type;location;lat;lon;timestamp;P1;durP1;ratioP1;P2;durP2;ratioP2
53513;SDS011;39768;54.148;12.174;2023-05-10T00:01:37;1.73;;;0.95;;
53513;SDS011;39768;54.148;12.174;2023-05-10T00:05:39;7.18;;;1.52;;
53513;SDS011;39768;54.148;12.174;2023-05-10T00:09:40;3.20;;;1.45;;
53513;SDS011;39768;54.148;12.174;2023-05-10T00:13:42;2.53;;;1.00;;
53513;SDS011;39768;54.148;12.174;2023-05-10T00:17:43;2.05;;;1.48;;
53513;SDS011;39768;54.148;12.174;2023-05-10T00:21:45;1.77;;;1.30;;
53513;SDS011;39768;54.148;12.174;2023-05-10T00:25:46;3.20;;;1.65;;
53513;SDS011;39768;54.148;12.174;2023-05-10T00:29:47;1.13;;;1.02;;
53513;SDS011;39768;54.148;12.174;2023-05-10T00:33:49;1.95;;;1.30;;
53513;SDS011;39768;54.148;12.174;2023-05-10T00:37:50;1.50;;;1.23;;
53513;SDS011;39768;54.148;12.174;2023-05-10T00:41:52;6.65;;;1.25;;
53513;SDS011;39768;54.148;12.174;2023-05-10T00:45:54;1.35;;;1.25;;
53513;SDS011;39768;54.148;12.174;2023-05-10T00:49:56;1.50;;;1.27;;
53513;SDS011;39768;54.148;12.174;2023-05-10T00:53:57;1.42;;;1.27;;
53513;SDS011;39768;54.148;12.174;2023-05-10T00:57:59;1.58;;;1.15;;
53513;SDS011;39768;54.148;12.174;2023-05-10T01:02:01;2.35;;;1.75;;
53513;SDS011;39768;54.148;12.174;2023-05-10T01:06:04;1.50;;;1.17;;
53513;SDS011;39768;54.148;12.174;2023-05-10T01:10:06;3.60;;;1.85;;
53513;SDS011;39768;54.148;12.174;2023-05-10T01:14:09;3.65;;;1.48;;
53513;SDS011;39768;54.148;12.174;2023-05-10T01:18:11;1.98;;;1.38;;
53513;SDS011;39768;54.148;12.174;2023-05-10T01:35:43;2.42;;;1.63;;
53513;SDS011;39768;54.148;12.174;2023-05-10T01:39:58;6.05;;;1.95;;
53513;SDS011;39768;54.148;12.174;2023-05-10T01:44:07;1.58;;;1.48;;
53513;SDS011;39768;54.148;12.174;2023-05-10T01:48:19;1.50;;;1.27;;
53513;SDS011;39768;54.148;12.174;2023-05-10T01:52:24;1.85;;;1.55;;
53513;SDS011;39768;54.148;12.174;2023-05-10T01:56:32;1.80;;;1.42;;
53513;SDS011;39768;54.148;12.174;2023-05-10T02:00:36;2.92;;;1.17;;
53513;SDS011;39768;54.148;12.174;2023-05-10T02:04:41;2.05;;;1.85;;
53513;SDS011;39768;54.148;12.174;2023-05-10T02:08:44;1.50;;;1.27;;
53513;SDS011;39768;54.148;12.174;2023-05-10T02:12:47;1.65;;;1.55;;
53513;SDS011;39768;54.148;12.174;2023-05-10T02:16:51;3.40;;;1.75;;
53513;SDS011;39768;54.148;12.174;2023-05-10T02:20:54;4.28;;;1.65;;
53513;SDS011;39768;54.148;12.174;2023-05-10T02:24:57;1.50;;;1.40;;
53513;SDS011;39768;54.148;12.174;2023-05-10T02:29:02;1.63;;;1.52;;
53513;SDS011;39768;54.148;12.174;2023-05-10T02:33:06;1.88;;;1.50;;
53513;SDS011;39768;54.148;12.174;2023-05-10T02:37:08;1.48;;;1.38;;
53513;SDS011;39768;54.148;12.174;2023-05-10T02:41:10;2.17;;;1.98;;
53513;SDS011;39768;54.148;12.174;2023-05-10T02:45:15;1.88;;;1.67;;
53513;SDS011;39768;54.148;12.174;2023-05-10T02:49:20;2.92;;;1.77;;
53513;SDS011;39768;54.148;12.174;2023-05-10T02:53:23;1.95;;;1.75;;
53513;SDS011;39768;54.148;12.174;2023-05-10T02:57:33;2.10;;;1.38;;
53513;SDS011;39768;54.148;12.174;2023-05-10T03:01:37;1.77;;;1.48;;
53513;SDS011;39768;54.148;12.174;2023-05-10T03:05:38;2.30;;;1.70;;
53513;SDS011;39768;54.148;12.174;2023-05-10T03:09:40;2.38;;;2.15;;
53513;SDS011;39768;54.148;12.174;2023-05-10T03:18:22;1.38;;;1.27;;
53513;SDS011;39768;54.148;12.174;2023-05-10T03:22:34;2.78;;;1.83;;
53513;SDS011;39768;54.148;12.174;2023-05-10T03:26:39;2.28;;;1.67;;
53513;SDS011;39768;54.148;12.174;2023-05-10T03:30:49;1.50;;;1.40;;
53513;SDS011;39768;54.148;12.174;2023-05-10T03:34:51;8.43;;;1.80;;
53513;SDS011;39768;54.148;12.174;2023-05-10T03:38:53;3.00;;;1.90;;
53513;SDS011;39768;54.148;12.174;2023-05-10T03:42:55;2.55;;;1.70;;
53513;SDS011;39768;54.148;12.174;2023-05-10T03:46:56;1.70;;;1.60;;
53513;SDS011;39768;54.148;12.174;2023-05-10T03:50:58;1.88;;;1.77;;
53513;SDS011;39768;54.148;12.174;2023-05-10T03:55:00;1.90;;;1.80;;
53513;SDS011;39768;54.148;12.174;2023-05-10T03:59:01;3.13;;;2.22;;
53513;SDS011;39768;54.148;12.174;2023-05-10T04:03:04;3.85;;;2.60;;
53513;SDS011;39768;54.148;12.174;2023-05-10T04:07:07;7.05;;;2.05;;
53513;SDS011;39768;54.148;12.174;2023-05-10T04:11:09;3.75;;;2.78;;
53513;SDS011;39768;54.148;12.174;2023-05-10T04:15:13;2.85;;;2.13;;
53513;SDS011;39768;54.148;12.174;2023-05-10T04:19:14;4.47;;;1.98;;
53513;SDS011;39768;54.148;12.174;2023-05-10T04:23:16;2.35;;;2.00;;
53513;SDS011;39768;54.148;12.174;2023-05-10T04:27:17;1.33;;;1.25;;
53513;SDS011;39768;54.148;12.174;2023-05-10T04:31:19;2.25;;;2.08;;
53513;SDS011;39768;54.148;12.174;2023-05-10T04:35:20;2.33;;;2.13;;
53513;SDS011;39768;54.148;12.174;2023-05-10T04:39:22;3.38;;;1.85;;
53513;SDS011;39768;54.148;12.174;2023-05-10T04:43:24;2.58;;;2.28;;
53513;SDS011;39768;54.148;12.174;2023-05-10T04:47:25;4.45;;;1.92;;
53513;SDS011;39768;54.148;12.174;2023-05-10T04:51:26;3.45;;;1.83;;
53513;SDS011;39768;54.148;12.174;2023-05-10T04:55:28;3.22;;;2.58;;
53513;SDS011;39768;54.148;12.174;2023-05-10T04:59:29;2.83;;;1.92;;
53513;SDS011;39768;54.148;12.174;2023-05-10T05:03:31;2.03;;;1.80;;
53513;SDS011;39768;54.148;12.174;2023-05-10T05:07:33;2.10;;;1.90;;
53513;SDS011;39768;54.148;12.174;2023-05-10T05:11:35;10.93;;;2.00;;
53513;SDS011;39768;54.148;12.174;2023-05-10T05:15:36;2.08;;;1.92;;
53513;SDS011;39768;54.148;12.174;2023-05-10T05:19:38;2.38;;;1.98;;
53513;SDS011;39768;54.148;12.174;2023-05-10T05:23:39;3.17;;;1.92;;
53513;SDS011;39768;54.148;12.174;2023-05-10T05:27:41;3.17;;;2.00;;
53513;SDS011;39768;54.148;12.174;2023-05-10T05:31:42;1.83;;;1.73;;
53513;SDS011;39768;54.148;12.174;2023-05-10T05:35:44;2.03;;;1.75;;
53513;SDS011;39768;54.148;12.174;2023-05-10T05:39:51;2.78;;;1.75;;
53513;SDS011;39768;54.148;12.174;2023-05-10T05:43:53;1.98;;;1.73;;
53513;SDS011;39768;54.148;12.174;2023-05-10T05:47:54;2.05;;;1.92;;
53513;SDS011;39768;54.148;12.174;2023-05-10T05:52:00;2.10;;;1.98;;
53513;SDS011;39768;54.148;12.174;2023-05-10T05:56:05;1.58;;;1.45;;
53513;SDS011;39768;54.148;12.174;2023-05-10T06:00:07;2.15;;;1.92;;
53513;SDS011;39768;54.148;12.174;2023-05-10T06:04:14;1.88;;;1.73;;
53513;SDS011;39768;54.148;12.174;2023-05-10T06:08:16;1.83;;;1.52;;
53513;SDS011;39768;54.148;12.174;2023-05-10T06:12:18;2.35;;;2.20;;
53513;SDS011;39768;54.148;12.174;2023-05-10T06:16:20;1.60;;;1.50;;
53513;SDS011;39768;54.148;12.174;2023-05-10T06:20:21;1.73;;;1.63;;
53513;SDS011;39768;54.148;12.174;2023-05-10T06:24:23;3.50;;;2.17;;
53513;SDS011;39768;54.148;12.174;2023-05-10T06:28:24;4.68;;;1.80;;
53513;SDS011;39768;54.148;12.174;2023-05-10T06:32:26;2.10;;;1.40;;
53513;SDS011;39768;54.148;12.174;2023-05-10T06:36:27;1.63;;;1.52;;
53513;SDS011;39768;54.148;12.174;2023-05-10T06:40:29;2.40;;;1.35;;
53513;SDS011;39768;54.148;12.174;2023-05-10T06:44:30;2.13;;;1.55;;
53513;SDS011;39768;54.148;12.174;2023-05-10T06:48:32;8.60;;;1.98;;
53513;SDS011;39768;54.148;12.174;2023-05-10T06:52:33;2.03;;;1.55;;
53513;SDS011;39768;54.148;12.174;2023-05-10T06:56:35;2.47;;;1.60;;
53513;SDS011;39768;54.148;12.174;2023-05-10T07:00:36;3.92;;;1.65;;
53513;SDS011;39768;54.148;12.174;2023-05-10T07:04:41;1.75;;;1.50;;
53513;SDS011;39768;54.148;12.174;2023-05-10T07:08:43;3.83;;;2.45;;
53513;SDS011;39768;54.148;12.174;2023-05-10T07:12:45;4.07;;;2.00;;
53513;SDS011;39768;54.148;12.174;2023-05-10T07:16:46;1.85;;;1.75;;
53513;SDS011;39768;54.148;12.174;2023-05-10T07:20:48;2.97;;;1.52;;
53513;SDS011;39768;54.148;12.174;2023-05-10T07:24:49;2.72;;;1.40;;
53513;SDS011;39768;54.148;12.174;2023-05-10T07:28:51;3.65;;;1.55;;
53513;SDS011;39768;54.148;12.174;2023-05-10T07:32:52;1.90;;;1.23;;
53513;SDS011;39768;54.148;12.174;2023-05-10T07:36:54;1.80;;;1.70;;
53513;SDS011;39768;54.148;12.174;2023-05-10T07:40:55;6.50;;;2.50;;
53513;SDS011;39768;54.148;12.174;2023-05-10T07:44:57;1.83;;;1.60;;
53513;SDS011;39768;54.148;12.174;2023-05-10T07:48:59;2.65;;;1.70;;
53513;SDS011;39768;54.148;12.174;2023-05-10T07:53:00;6.28;;;2.08;;
53513;SDS011;39768;54.148;12.174;2023-05-10T07:57:02;1.70;;;1.38;;
53513;SDS011;39768;54.148;12.174;2023-05-10T08:01:03;2.38;;;1.55;;
53513;SDS011;39768;54.148;12.174;2023-05-10T08:05:05;1.42;;;1.33;;
53513;SDS011;39768;54.148;12.174;2023-05-10T08:09:07;4.47;;;2.03;;
53513;SDS011;39768;54.148;12.174;2023-05-10T08:13:09;2.67;;;2.13;;
53513;SDS011;39768;54.148;12.174;2023-05-10T08:17:10;1.75;;;1.38;;
53513;SDS011;39768;54.148;12.174;2023-05-10T08:21:12;2.13;;;1.65;;
53513;SDS011;39768;54.148;12.174;2023-05-10T08:25:14;2.22;;;1.75;;
53513;SDS011;39768;54.148;12.174;2023-05-10T08:29:16;1.27;;;1.17;;
53513;SDS011;39768;54.148;12.174;2023-05-10T08:33:18;2.28;;;1.35;;
53513;SDS011;39768;54.148;12.174;2023-05-10T08:37:20;3.70;;;1.55;;
53513;SDS011;39768;54.148;12.174;2023-05-10T08:41:21;1.75;;;1.60;;
53513;SDS011;39768;54.148;12.174;2023-05-10T08:45:27;1.67;;;1.23;;
53513;SDS011;39768;54.148;12.174;2023-05-10T08:49:33;2.92;;;2.03;;
53513;SDS011;39768;54.148;12.174;2023-05-10T08:53:35;3.53;;;1.95;;
53513;SDS011;39768;54.148;12.174;2023-05-10T08:57:38;2.17;;;1.98;;
53513;SDS011;39768;54.148;12.174;2023-05-10T09:01:40;2.17;;;1.92;;
53513;SDS011;39768;54.148;12.174;2023-05-10T09:05:43;2.78;;;2.05;;
53513;SDS011;39768;54.148;12.174;2023-05-10T09:09:46;2.40;;;2.10;;
53513;SDS011;39768;54.148;12.174;2023-05-10T09:13:48;2.40;;;2.13;;
53513;SDS011;39768;54.148;12.174;2023-05-10T09:17:52;2.42;;;1.70;;
53513;SDS011;39768;54.148;12.174;2023-05-10T09:21:55;1.48;;;1.33;;
53513;SDS011;39768;54.148;12.174;2023-05-10T09:26:06;1.40;;;1.23;;
53513;SDS011;39768;54.148;12.174;2023-05-10T09:30:08;2.17;;;2.05;;
53513;SDS011;39768;54.148;12.174;2023-05-10T09:34:10;1.75;;;1.27;;
53513;SDS011;39768;54.148;12.174;2023-05-10T09:38:12;2.03;;;1.83;;
53513;SDS011;39768;54.148;12.174;2023-05-10T09:42:13;1.98;;;1.23;;
53513;SDS011;39768;54.148;12.174;2023-05-10T09:46:19;1.30;;;1.20;;
53513;SDS011;39768;54.148;12.174;2023-05-10T09:50:21;1.83;;;1.13;;
53513;SDS011;39768;54.148;12.174;2023-05-10T09:54:23;1.75;;;1.50;;
53513;SDS011;39768;54.148;12.174;2023-05-10T09:58:25;4.80;;;2.35;;
53513;SDS011;39768;54.148;12.174;2023-05-10T10:02:29;3.97;;;2.67;;
53513;SDS011;39768;54.148;12.174;2023-05-10T10:06:35;1.23;;;1.10;;
53513;SDS011;39768;54.148;12.174;2023-05-10T10:10:38;1.98;;;1.27;;
53513;SDS011;39768;54.148;12.174;2023-05-10T10:14:47;2.08;;;1.92;;
53513;SDS011;39768;54.148;12.174;2023-05-10T10:18:51;3.45;;;1.90;;
53513;SDS011;39768;54.148;12.174;2023-05-10T10:22:53;2.85;;;1.80;;
53513;SDS011;39768;54.148;12.174;2023-05-10T10:26:55;2.10;;;1.70;;
53513;SDS011;39768;54.148;12.174;2023-05-10T10:31:17;2.33;;;1.23;;
53513;SDS011;39768;54.148;12.174;2023-05-10T10:35:28;1.27;;;1.17;;
53513;SDS011;39768;54.148;12.174;2023-05-10T10:39:30;3.05;;;1.42;;
53513;SDS011;39768;54.148;12.174;2023-05-10T10:43:32;1.30;;;1.20;;
53513;SDS011;39768;54.148;12.174;2023-05-10T10:47:33;1.20;;;1.10;;
53513;SDS011;39768;54.148;12.174;2023-05-10T10:51:39;2.20;;;1.40;;
53513;SDS011;39768;54.148;12.174;2023-05-10T10:55:47;1.40;;;1.30;;
53513;SDS011;39768;54.148;12.174;2023-05-10T10:59:49;1.40;;;1.10;;
53513;SDS011;39768;54.148;12.174;2023-05-10T11:08:07;1.38;;;1.20;;
53513;SDS011;39768;54.148;12.174;2023-05-10T11:12:16;1.42;;;1.33;;
53513;SDS011;39768;54.148;12.174;2023-05-10T11:24:57;1.38;;;1.02;;
53513;SDS011;39768;54.148;12.174;2023-05-10T11:28:59;1.63;;;1.40;;
53513;SDS011;39768;54.148;12.174;2023-05-10T11:33:03;1.27;;;1.17;;
53513;SDS011;39768;54.148;12.174;2023-05-10T11:37:04;2.78;;;1.80;;
53513;SDS011;39768;54.148;12.174;2023-05-10T11:41:07;1.35;;;1.13;;
53513;SDS011;39768;54.148;12.174;2023-05-10T11:45:10;1.50;;;1.40;;
53513;SDS011;39768;54.148;12.174;2023-05-10T11:49:12;2.60;;;1.08;;
53513;SDS011;39768;54.148;12.174;2023-05-10T11:53:14;2.25;;;1.33;;
53513;SDS011;39768;54.148;12.174;2023-05-10T11:57:16;1.60;;;1.50;;
53513;SDS011;39768;54.148;12.174;2023-05-10T12:01:20;1.10;;;1.00;;
53513;SDS011;39768;54.148;12.174;2023-05-10T12:05:22;1.77;;;1.60;;
53513;SDS011;39768;54.148;12.174;2023-05-10T12:09:24;1.48;;;1.35;;
53513;SDS011;39768;54.148;12.174;2023-05-10T12:13:41;1.42;;;1.20;;
53513;SDS011;39768;54.148;12.174;2023-05-10T12:17:47;1.58;;;1.25;;
53513;SDS011;39768;54.148;12.174;2023-05-10T12:21:50;1.80;;;1.30;;
53513;SDS011;39768;54.148;12.174;2023-05-10T12:25:51;2.05;;;1.92;;
53513;SDS011;39768;54.148;12.174;2023-05-10T12:29:55;3.85;;;0.90;;
53513;SDS011;39768;54.148;12.174;2023-05-10T12:33:56;1.77;;;1.13;;
53513;SDS011;39768;54.148;12.174;2023-05-10T12:37:58;2.22;;;1.58;;
53513;SDS011;39768;54.148;12.174;2023-05-10T12:41:59;3.65;;;1.40;;
53513;SDS011;39768;54.148;12.174;2023-05-10T12:46:11;5.43;;;1.45;;
53513;SDS011;39768;54.148;12.174;2023-05-10T12:50:14;1.60;;;1.25;;
53513;SDS011;39768;54.148;12.174;2023-05-10T12:54:16;2.13;;;1.77;;
53513;SDS011;39768;54.148;12.174;2023-05-10T12:58:17;2.17;;;1.23;;
53513;SDS011;39768;54.148;12.174;2023-05-10T13:02:34;2.17;;;1.17;;
53513;SDS011;39768;54.148;12.174;2023-05-10T13:06:36;1.20;;;1.10;;
53513;SDS011;39768;54.148;12.174;2023-05-10T13:10:38;1.65;;;1.35;;
53513;SDS011;39768;54.148;12.174;2023-05-10T13:14:40;5.75;;;2.28;;
53513;SDS011;39768;54.148;12.174;2023-05-10T13:18:41;1.85;;;1.15;;
53513;SDS011;39768;54.148;12.174;2023-05-10T13:22:43;1.73;;;1.40;;
53513;SDS011;39768;54.148;12.174;2023-05-10T13:26:46;1.65;;;1.55;;
53513;SDS011;39768;54.148;12.174;2023-05-10T13:30:47;1.75;;;1.65;;
53513;SDS011;39768;54.148;12.174;2023-05-10T13:34:48;2.20;;;2.03;;
53513;SDS011;39768;54.148;12.174;2023-05-10T13:38:50;1.58;;;1.45;;
53513;SDS011;39768;54.148;12.174;2023-05-10T13:42:51;1.50;;;1.25;;
53513;SDS011;39768;54.148;12.174;2023-05-10T13:46:54;2.22;;;1.60;;
53513;SDS011;39768;54.148;12.174;2023-05-10T13:50:56;0.77;;;0.77;;
53513;SDS011;39768;54.148;12.174;2023-05-10T13:54:58;1.23;;;1.17;;
53513;SDS011;39768;54.148;12.174;2023-05-10T13:58:59;2.28;;;1.98;;
53513;SDS011;39768;54.148;12.174;2023-05-10T14:03:01;2.80;;;1.90;;
53513;SDS011;39768;54.148;12.174;2023-05-10T14:07:02;4.07;;;1.45;;
53513;SDS011;39768;54.148;12.174;2023-05-10T14:11:05;3.45;;;1.67;;
53513;SDS011;39768;54.148;12.174;2023-05-10T14:15:08;2.25;;;2.00;;
53513;SDS011;39768;54.148;12.174;2023-05-10T14:19:12;3.08;;;2.15;;
53513;SDS011;39768;54.148;12.174;2023-05-10T14:23:13;2.05;;;1.58;;
53513;SDS011;39768;54.148;12.174;2023-05-10T14:27:15;2.28;;;2.08;;
53513;SDS011;39768;54.148;12.174;2023-05-10T14:31:17;2.22;;;1.88;;
53513;SDS011;39768;54.148;12.174;2023-05-10T14:35:20;1.85;;;1.35;;
53513;SDS011;39768;54.148;12.174;2023-05-10T14:39:22;2.80;;;1.65;;
53513;SDS011;39768;54.148;12.174;2023-05-10T14:43:24;3.30;;;2.10;;
53513;SDS011;39768;54.148;12.174;2023-05-10T14:47:25;3.17;;;1.85;;
53513;SDS011;39768;54.148;12.174;2023-05-10T14:51:27;5.82;;;1.42;;
53513;SDS011;39768;54.148;12.174;2023-05-10T14:55:28;1.42;;;1.23;;
53513;SDS011;39768;54.148;12.174;2023-05-10T14:59:31;1.63;;;1.30;;
53513;SDS011;39768;54.148;12.174;2023-05-10T15:03:32;1.42;;;1.35;;
53513;SDS011;39768;54.148;12.174;2023-05-10T15:07:34;2.05;;;1.25;;
53513;SDS011;39768;54.148;12.174;2023-05-10T15:11:36;1.23;;;1.13;;
53513;SDS011;39768;54.148;12.174;2023-05-10T15:15:37;1.83;;;1.33;;
53513;SDS011;39768;54.148;12.174;2023-05-10T15:19:39;1.70;;;1.10;;
53513;SDS011;39768;54.148;12.174;2023-05-10T15:23:40;4.07;;;1.38;;
53513;SDS011;39768;54.148;12.174;2023-05-10T15:27:42;2.78;;;1.20;;
53513;SDS011;39768;54.148;12.174;2023-05-10T15:31:48;2.72;;;1.90;;
53513;SDS011;39768;54.148;12.174;2023-05-10T15:35:51;1.63;;;1.38;;
53513;SDS011;39768;54.148;12.174;2023-05-10T15:39:52;2.67;;;1.52;;
53513;SDS011;39768;54.148;12.174;2023-05-10T15:43:56;1.42;;;1.17;;
53513;SDS011;39768;54.148;12.174;2023-05-10T15:48:00;2.33;;;1.40;;
53513;SDS011;39768;54.148;12.174;2023-05-10T15:52:02;1.35;;;1.17;;
53513;SDS011;39768;54.148;12.174;2023-05-10T15:56:04;3.13;;;1.50;;
53513;SDS011;39768;54.148;12.174;2023-05-10T16:00:06;1.45;;;1.35;;
53513;SDS011;39768;54.148;12.174;2023-05-10T16:04:12;1.50;;;1.10;;
53513;SDS011;39768;54.148;12.174;2023-05-10T16:08:13;1.90;;;1.80;;
53513;SDS011;39768;54.148;12.174;2023-05-10T16:12:15;4.03;;;2.10;;
53513;SDS011;39768;54.148;12.174;2023-05-10T16:16:17;1.60;;;1.48;;
53513;SDS011;39768;54.148;12.174;2023-05-10T16:20:18;1.90;;;1.40;;
53513;SDS011;39768;54.148;12.174;2023-05-10T16:24:20;3.03;;;1.08;;
53513;SDS011;39768;54.148;12.174;2023-05-10T16:28:21;1.70;;;1.25;;
53513;SDS011;39768;54.148;12.174;2023-05-10T16:32:23;1.63;;;1.10;;
53513;SDS011;39768;54.148;12.174;2023-05-10T16:36:25;2.20;;;1.58;;
53513;SDS011;39768;54.148;12.174;2023-05-10T16:40:26;1.67;;;1.58;;
53513;SDS011;39768;54.148;12.174;2023-05-10T16:44:28;1.83;;;1.73;;
53513;SDS011;39768;54.148;12.174;2023-05-10T16:48:29;2.35;;;2.10;;
53513;SDS011;39768;54.148;12.174;2023-05-10T16:52:31;5.43;;;2.85;;
53513;SDS011;39768;54.148;12.174;2023-05-10T16:56:33;3.13;;;2.65;;
53513;SDS011;39768;54.148;12.174;2023-05-10T17:00:34;3.88;;;3.08;;
53513;SDS011;39768;54.148;12.174;2023-05-10T17:04:36;3.28;;;2.95;;
53513;SDS011;39768;54.148;12.174;2023-05-10T17:08:37;5.30;;;3.35;;
53513;SDS011;39768;54.148;12.174;2023-05-10T17:12:40;6.78;;;2.65;;
53513;SDS011;39768;54.148;12.174;2023-05-10T17:16:42;4.55;;;3.50;;
53513;SDS011;39768;54.148;12.174;2023-05-10T17:20:43;5.53;;;3.90;;
53513;SDS011;39768;54.148;12.174;2023-05-10T17:24:45;3.40;;;3.10;;
53513;SDS011;39768;54.148;12.174;2023-05-10T17:28:46;5.18;;;3.10;;
53513;SDS011;39768;54.148;12.174;2023-05-10T17:32:48;5.13;;;3.08;;
53513;SDS011;39768;54.148;12.174;2023-05-10T17:36:49;4.13;;;3.80;;
53513;SDS011;39768;54.148;12.174;2023-05-10T17:40:51;4.68;;;3.58;;
53513;SDS011;39768;54.148;12.174;2023-05-10T17:44:52;4.47;;;3.70;;
53513;SDS011;39768;54.148;12.174;2023-05-10T17:48:54;4.05;;;3.33;;
53513;SDS011;39768;54.148;12.174;2023-05-10T17:52:55;5.55;;;4.05;;
53513;SDS011;39768;54.148;12.174;2023-05-10T17:56:57;10.63;;;4.57;;
53513;SDS011;39768;54.148;12.174;2023-05-10T18:00:59;5.28;;;3.42;;
53513;SDS011;39768;54.148;12.174;2023-05-10T18:05:01;3.90;;;3.03;;
53513;SDS011;39768;54.148;12.174;2023-05-10T18:09:04;5.13;;;4.13;;
53513;SDS011;39768;54.148;12.174;2023-05-10T18:13:07;6.45;;;3.90;;
53513;SDS011;39768;54.148;12.174;2023-05-10T18:17:09;3.85;;;3.33;;
53513;SDS011;39768;54.148;12.174;2023-05-10T18:21:11;4.93;;;3.88;;
53513;SDS011;39768;54.148;12.174;2023-05-10T18:25:13;6.53;;;3.80;;
53513;SDS011;39768;54.148;12.174;2023-05-10T18:29:14;5.07;;;3.67;;
53513;SDS011;39768;54.148;12.174;2023-05-10T18:33:16;6.07;;;3.72;;
53513;SDS011;39768;54.148;12.174;2023-05-10T18:37:18;3.30;;;2.85;;
53513;SDS011;39768;54.148;12.174;2023-05-10T18:41:20;5.07;;;3.35;;
53513;SDS011;39768;54.148;12.174;2023-05-10T18:45:21;8.02;;;3.80;;
53513;SDS011;39768;54.148;12.174;2023-05-10T18:49:23;7.57;;;3.40;;
53513;SDS011;39768;54.148;12.174;2023-05-10T18:53:24;3.97;;;3.38;;
53513;SDS011;39768;54.148;12.174;2023-05-10T18:57:26;8.07;;;3.63;;
53513;SDS011;39768;54.148;12.174;2023-05-10T19:01:27;5.25;;;3.20;;
53513;SDS011;39768;54.148;12.174;2023-05-10T19:05:29;7.05;;;3.88;;
53513;SDS011;39768;54.148;12.174;2023-05-10T19:09:31;6.20;;;3.47;;
53513;SDS011;39768;54.148;12.174;2023-05-10T19:13:33;6.05;;;3.90;;
53513;SDS011;39768;54.148;12.174;2023-05-10T19:17:35;5.70;;;2.90;;
53513;SDS011;39768;54.148;12.174;2023-05-10T19:21:37;4.50;;;3.47;;
53513;SDS011;39768;54.148;12.174;2023-05-10T19:25:38;4.47;;;3.47;;
53513;SDS011;39768;54.148;12.174;2023-05-10T19:29:42;6.57;;;3.85;;
53513;SDS011;39768;54.148;12.174;2023-05-10T19:33:43;4.45;;;3.35;;
53513;SDS011;39768;54.148;12.174;2023-05-10T19:37:45;6.07;;;3.28;;
53513;SDS011;39768;54.148;12.174;2023-05-10T19:41:47;6.72;;;3.25;;
53513;SDS011;39768;54.148;12.174;2023-05-10T19:45:49;3.35;;;3.05;;
53513;SDS011;39768;54.148;12.174;2023-05-10T19:49:51;5.07;;;3.10;;
53513;SDS011;39768;54.148;12.174;2023-05-10T19:53:52;4.28;;;3.20;;
53513;SDS011;39768;54.148;12.174;2023-05-10T19:57:54;4.88;;;3.60;;
53513;SDS011;39768;54.148;12.174;2023-05-10T20:01:56;9.55;;;4.22;;
53513;SDS011;39768;54.148;12.174;2023-05-10T20:05:57;6.95;;;3.72;;
53513;SDS011;39768;54.148;12.174;2023-05-10T20:09:59;4.40;;;3.38;;
53513;SDS011;39768;54.148;12.174;2023-05-10T20:14:00;11.13;;;3.47;;
53513;SDS011;39768;54.148;12.174;2023-05-10T20:18:03;3.85;;;3.38;;
53513;SDS011;39768;54.148;12.174;2023-05-10T20:22:04;6.45;;;3.63;;
53513;SDS011;39768;54.148;12.174;2023-05-10T20:26:06;4.93;;;2.85;;
53513;SDS011;39768;54.148;12.174;2023-05-10T20:30:07;4.40;;;3.58;;
53513;SDS011;39768;54.148;12.174;2023-05-10T20:34:10;4.55;;;3.20;;
53513;SDS011;39768;54.148;12.174;2023-05-10T20:38:12;5.30;;;2.80;;
53513;SDS011;39768;54.148;12.174;2023-05-10T20:42:13;5.25;;;2.92;;
53513;SDS011;39768;54.148;12.174;2023-05-10T20:46:15;4.22;;;3.03;;
53513;SDS011;39768;54.148;12.174;2023-05-10T20:50:17;5.43;;;3.45;;
53513;SDS011;39768;54.148;12.174;2023-05-10T20:54:19;3.72;;;3.35;;
53513;SDS011;39768;54.148;12.174;2023-05-10T20:58:22;5.07;;;3.03;;
53513;SDS011;39768;54.148;12.174;2023-05-10T21:02:23;8.05;;;3.70;;
53513;SDS011;39768;54.148;12.174;2023-05-10T21:06:25;5.47;;;3.20;;
53513;SDS011;39768;54.148;12.174;2023-05-10T21:10:26;5.60;;;3.67;;
53513;SDS011;39768;54.148;12.174;2023-05-10T21:14:31;4.20;;;3.20;;
53513;SDS011;39768;54.148;12.174;2023-05-10T21:18:33;4.22;;;3.05;;
53513;SDS011;39768;54.148;12.174;2023-05-10T21:22:34;5.97;;;3.95;;
53513;SDS011;39768;54.148;12.174;2023-05-10T21:26:36;5.68;;;3.80;;
53513;SDS011;39768;54.148;12.174;2023-05-10T21:30:38;3.25;;;2.95;;
53513;SDS011;39768;54.148;12.174;2023-05-10T21:34:39;3.95;;;3.53;;
53513;SDS011;39768;54.148;12.174;2023-05-10T21:38:41;3.75;;;3.38;;
53513;SDS011;39768;54.148;12.174;2023-05-10T21:42:44;3.97;;;3.65;;
53513;SDS011;39768;54.148;12.174;2023-05-10T21:46:49;3.22;;;3.00;;
53513;SDS011;39768;54.148;12.174;2023-05-10T21:50:51;4.57;;;3.45;;
53513;SDS011;39768;54.148;12.174;2023-05-10T21:54:52;4.65;;;3.03;;
53513;SDS011;39768;54.148;12.174;2023-05-10T21:58:54;4.85;;;3.60;;
53513;SDS011;39768;54.148;12.174;2023-05-10T22:02:55;5.07;;;3.83;;
53513;SDS011;39768;54.148;12.174;2023-05-10T22:06:57;6.72;;;3.67;;
53513;SDS011;39768;54.148;12.174;2023-05-10T22:10:58;5.57;;;3.35;;
53513;SDS011;39768;54.148;12.174;2023-05-10T22:15:00;6.25;;;3.25;;
53513;SDS011;39768;54.148;12.174;2023-05-10T22:19:11;3.75;;;2.92;;
53513;SDS011;39768;54.148;12.174;2023-05-10T22:23:12;3.25;;;2.95;;
53513;SDS011;39768;54.148;12.174;2023-05-10T22:27:14;3.65;;;3.30;;
53513;SDS011;39768;54.148;12.174;2023-05-10T22:31:15;3.78;;;3.05;;
53513;SDS011;39768;54.148;12.174;2023-05-10T22:35:17;6.00;;;3.75;;
53513;SDS011;39768;54.148;12.174;2023-05-10T22:39:18;4.47;;;3.60;;
53513;SDS011;39768;54.148;12.174;2023-05-10T22:43:20;3.63;;;3.20;;
53513;SDS011;39768;54.148;12.174;2023-05-10T22:47:21;4.55;;;2.85;;
53513;SDS011;39768;54.148;12.174;2023-05-10T22:51:23;6.65;;;4.13;;
53513;SDS011;39768;54.148;12.174;2023-05-10T22:55:24;7.63;;;4.05;;
53513;SDS011;39768;54.148;12.174;2023-05-10T22:59:26;6.13;;;3.75;;
53513;SDS011;39768;54.148;12.174;2023-05-10T23:03:28;3.78;;;3.38;;
53513;SDS011;39768;54.148;12.174;2023-05-10T23:07:30;4.13;;;3.47;;
53513;SDS011;39768;54.148;12.174;2023-05-10T23:11:31;4.47;;;3.00;;
53513;SDS011;39768;54.148;12.174;2023-05-10T23:15:33;3.72;;;3.42;;
53513;SDS011;39768;54.148;12.174;2023-05-10T23:19:36;4.72;;;3.50;;
53513;SDS011;39768;54.148;12.174;2023-05-10T23:23:38;5.95;;;3.83;;
53513;SDS011;39768;54.148;12.174;2023-05-10T23:27:39;5.68;;;3.58;;
53513;SDS011;39768;54.148;12.174;2023-05-10T23:31:41;6.03;;;3.25;;
53513;SDS011;39768;54.148;12.174;2023-05-10T23:35:45;6.15;;;3.65;;
53513;SDS011;39768;54.148;12.174;2023-05-10T23:39:47;4.82;;;3.78;;
53513;SDS011;39768;54.148;12.174;2023-05-10T23:43:48;7.32;;;3.75;;
53513;SDS011;39768;54.148;12.174;2023-05-10T23:47:50;4.70;;;3.70;;
53513;SDS011;39768;54.148;12.174;2023-05-10T23:51:51;4.40;;;3.28;;
53513;SDS011;39768;54.148;12.174;2023-05-10T23:55:53;8.25;;;3.88;;
53513;SDS011;39768;54.148;12.174;2023-05-10T23:59:54;4.88;;;3.83;;
